Time;durP1;ratioP1;P1;durP2;ratioP2;P2;SDS_P1;SDS_P2;PMS_P1;PMS_P2;Temp;Humidity;BMP_temperature;BMP_pressure;BME280_temperature;BME280_humidity;BME280_pressure;Samples;Min_cycle;Max_cycle;Signal;HPM_P1;HPM_P2
2021/05/16 00:01:16;;;;;;;3.90;1.17;;;;;;;9.43;84.54;97405.91;5025227;28;20068;-65
2021/05/16 00:03:41;;;;;;;3.38;0.73;;;;;;;9.46;84.95;97405.81;5039964;28;20021;-65
2021/05/16 00:06:07;;;;;;;5.28;0.80;;;;;;;9.52;83.73;97395.09;5042991;28;20021;-65
2021/05/16 00:08:32;;;;;;;5.55;0.65;;;;;;;9.54;84.47;97390.63;5024854;28;20029;-65
2021/05/16 00:10:58;;;;;;;1.55;0.43;;;;;;;9.48;83.39;97381.19;5024560;28;20028;-65
2021/05/16 00:13:24;;;;;;;2.17;0.80;;;;;;;9.40;83.28;97387.63;5029352;28;20026;-65
2021/05/16 00:15:50;;;;;;;2.53;0.77;;;;;;;9.31;83.74;97383.56;5024690;28;20052;-65
2021/05/16 00:18:15;;;;;;;3.10;0.65;;;;;;;9.28;84.14;97388.03;5024441;28;20028;-65
2021/05/16 00:20:41;;;;;;;0.68;0.45;;;;;;;9.25;83.85;97394.25;5024438;28;20117;-65
2021/05/16 00:23:06;;;;;;;1.48;0.40;;;;;;;9.26;84.33;97380.22;5060465;28;20076;-65
2021/05/16 00:25:33;;;;;;;1.67;0.52;;;;;;;9.33;83.93;97371.22;5023946;28;20024;-65
2021/05/16 00:27:59;;;;;;;3.50;0.77;;;;;;;9.37;84.59;97377.22;5023799;28;20024;-65
2021/05/16 00:30:27;;;;;;;4.47;0.75;;;;;;;9.42;84.49;97376.16;5023799;28;20328;-65
2021/05/16 00:32:54;;;;;;;2.13;0.70;;;;;;;9.36;84.54;97381.59;5028608;28;20032;-65
2021/05/16 00:35:21;;;;;;;1.40;0.35;;;;;;;9.50;84.41;97381.13;5023237;28;20335;-65
2021/05/16 00:37:47;;;;;;;0.30;0.30;;;;;;;9.58;83.49;97365.94;5024183;28;20032;-65
2021/05/16 00:40:13;;;;;;;0.40;0.20;;;;;;;9.60;83.97;97370.25;5022800;28;20024;-65
2021/05/16 00:42:39;;;;;;;1.95;0.60;;;;;;;9.65;83.60;97357.81;5027864;28;20021;-65
2021/05/16 00:45:07;;;;;;;1.33;0.52;;;;;;;9.71;83.73;97362.00;5024176;28;20017;-65
2021/05/16 00:47:33;;;;;;;3.22;0.50;;;;;;;9.66;83.34;97354.28;5024937;28;20354;-65
2021/05/16 00:49:58;;;;;;;2.58;0.50;;;;;;;9.67;84.02;97365.63;5024617;28;20017;-65
2021/05/16 00:52:25;;;;;;;2.05;0.50;;;;;;;9.64;84.24;97366.59;5026814;28;20277;-65
2021/05/16 00:54:52;;;;;;;0.88;0.40;;;;;;;9.65;84.00;97367.47;5044289;28;20032;-65
2021/05/16 00:57:18;;;;;;;1.13;0.52;;;;;;;9.68;83.68;97362.13;5044248;28;20024;-65
2021/05/16 00:59:43;;;;;;;3.33;0.88;;;;;;;9.56;84.52;97359.91;5024865;28;20022;-65
2021/05/16 01:02:09;;;;;;;1.60;0.60;;;;;;;9.56;84.96;97367.78;5024474;28;20028;-65
2021/05/16 01:04:40;;;;;;;2.97;0.70;;;;;;;9.61;84.89;97350.94;5022823;23;20061;-92
2021/05/16 01:07:09;;;;;;;1.30;0.50;;;;;;;9.71;84.47;97351.50;5004545;28;20045;-91
2021/05/16 01:09:38;;;;;;;1.58;0.50;;;;;;;9.70;84.42;97347.13;5003089;28;20038;-91
2021/05/16 01:12:11;;;;;;;4.53;0.68;;;;;;;9.69;84.24;97350.69;5003231;28;20061;-92
2021/05/16 01:14:44;;;;;;;2.90;0.60;;;;;;;9.76;84.92;97353.03;5003154;28;20038;-92
2021/05/16 01:17:13;;;;;;;2.15;0.60;;;;;;;9.84;84.76;97343.09;4997739;28;20312;-91
2021/05/16 01:19:42;;;;;;;2.20;0.70;;;;;;;9.87;84.77;97339.50;5004825;28;20268;-92
2021/05/16 01:22:16;;;;;;;4.55;1.00;;;;;;;9.94;84.30;97349.72;5004189;28;20033;-92
2021/05/16 01:24:50;;;;;;;1.35;0.65;;;;;;;9.96;84.58;97347.91;5003897;28;20031;-92
2021/05/16 01:27:22;;;;;;;1.23;0.60;;;;;;;9.90;84.65;97342.03;5001410;28;20026;-91
2021/05/16 01:29:56;;;;;;;4.95;0.90;;;;;;;9.96;84.79;97347.03;5003288;28;20038;-92
2021/05/16 01:32:32;;;;;;;0.95;0.80;;;;;;;9.91;84.87;97341.09;5014796;28;20340;-92
2021/05/16 01:35:05;;;;;;;3.92;0.98;;;;;;;9.96;84.50;97337.38;5004036;28;20102;-91
2021/05/16 01:37:37;;;;;;;1.60;0.80;;;;;;;10.01;84.34;97345.09;5002750;28;20022;-91
2021/05/16 01:40:06;;;;;;;1.77;0.80;;;;;;;10.07;84.51;97360.69;5002829;28;20080;-91
2021/05/16 01:42:49;;;;;;;2.03;0.70;;;;;;;10.08;84.34;97341.34;5003890;28;20026;-91
2021/05/16 01:45:20;;;;;;;3.17;1.00;;;;;;;10.16;84.16;97344.56;5003273;28;20316;-92
2021/05/16 01:47:58;;;;;;;2.85;0.80;;;;;;;10.14;84.83;97342.00;5004022;28;20077;-91
2021/05/16 01:50:34;;;;;;;5.88;1.10;;;;;;;10.14;84.91;97341.13;5003420;28;20109;-92
2021/05/16 01:53:21;;;;;;;2.30;1.00;;;;;;;10.23;84.44;97346.03;5001688;28;20038;-92
2021/05/16 01:55:55;;;;;;;4.35;1.02;;;;;;;10.18;84.96;97342.72;5004911;28;20030;-92
2021/05/16 02:00:56;;;;;;;3.53;1.23;;;;;;;10.28;84.88;97349.31;5039522;28;20247;-64
2021/05/16 02:03:21;;;;;;;8.15;1.20;;;;;;;10.24;85.44;97359.13;5043540;28;20013;-64
2021/05/16 02:05:50;;;;;;;5.68;1.10;;;;;;;10.28;85.72;97344.06;5045913;28;20048;-64
2021/05/16 02:08:18;;;;;;;3.42;1.08;;;;;;;10.21;86.02;97347.84;5047414;28;20021;-64
2021/05/16 02:10:44;;;;;;;3.17;0.90;;;;;;;10.27;85.86;97345.00;5031845;28;20026;-64
2021/05/16 02:13:09;;;;;;;3.05;0.90;;;;;;;10.27;85.72;97345.00;5027395;28;20026;-64
2021/05/16 02:15:35;;;;;;;3.08;0.90;;;;;;;10.25;85.34;97344.22;5023532;28;20085;-64
2021/05/16 02:18:01;;;;;;;4.10;1.00;;;;;;;10.18;86.08;97342.72;5023465;28;20022;-64
2021/05/16 02:20:27;;;;;;;5.43;1.00;;;;;;;10.15;85.72;97340.19;5017912;28;20045;-64
2021/05/16 02:22:53;;;;;;;5.88;1.10;;;;;;;10.20;85.39;97348.78;5022814;28;20018;-64
2021/05/16 02:25:20;;;;;;;2.15;0.70;;;;;;;10.19;85.49;97345.28;5011199;28;20022;-64
2021/05/16 02:27:49;;;;;;;1.95;0.90;;;;;;;10.20;85.44;97346.16;5009838;28;20026;-64
2021/05/16 02:30:16;;;;;;;4.90;0.93;;;;;;;10.18;85.86;97342.72;5021802;28;20037;-64
2021/05/16 02:32:42;;;;;;;5.97;1.10;;;;;;;10.20;85.65;97341.75;5022314;28;20029;-64
2021/05/16 02:35:10;;;;;;;4.32;1.00;;;;;;;10.25;85.60;97338.97;5023920;28;20351;-64
2021/05/16 02:37:36;;;;;;;2.83;0.70;;;;;;;10.28;85.40;97341.44;5023424;28;20017;-64
2021/05/16 02:40:03;;;;;;;3.15;0.98;;;;;;;10.32;86.01;97341.25;5025633;28;20029;-64
2021/05/16 02:42:28;;;;;;;3.03;1.00;;;;;;;10.35;85.31;97345.56;5022215;28;20068;-64
2021/05/16 02:44:53;;;;;;;3.33;1.30;;;;;;;10.30;85.31;97342.25;5023748;28;20018;-64
2021/05/16 02:47:19;;;;;;;4.53;1.23;;;;;;;10.29;86.14;97346.63;5023723;28;20186;-64
2021/05/16 02:49:44;;;;;;;5.30;1.23;;;;;;;10.32;86.26;97343.06;5030264;28;20018;-64
2021/05/16 02:52:10;;;;;;;2.35;1.00;;;;;;;10.36;85.77;97342.00;5023990;28;20022;-64
2021/05/16 02:54:35;;;;;;;6.65;1.60;;;;;;;10.39;85.64;97341.88;5027005;28;20022;-64
2021/05/16 02:57:01;;;;;;;3.88;1.27;;;;;;;10.48;85.62;97341.53;5026744;28;20032;-64
2021/05/16 02:59:26;;;;;;;6.45;1.10;;;;;;;10.43;85.51;97339.09;5030446;28;20108;-64
2021/05/16 03:01:52;;;;;;;6.25;1.33;;;;;;;10.41;86.17;97342.69;5046655;28;20021;-64
2021/05/16 03:04:18;;;;;;;6.45;1.85;;;;;;;10.38;85.99;97348.06;5046367;28;20021;-64
2021/05/16 03:06:43;;;;;;;3.42;1.20;;;;;;;10.39;85.68;97347.16;5046350;28;20216;-64
2021/05/16 03:09:08;;;;;;;5.78;1.30;;;;;;;10.39;85.99;97341.88;5044722;28;20021;-64
2021/05/16 03:11:34;;;;;;;4.63;1.20;;;;;;;10.40;85.26;97339.19;5026424;28;20332;-64
2021/05/16 03:13:59;;;;;;;5.72;1.52;;;;;;;10.33;85.39;97337.72;5026345;28;20339;-64
2021/05/16 03:16:25;;;;;;;8.27;1.75;;;;;;;10.29;85.92;97337.91;5025992;28;20021;-64
2021/05/16 03:18:50;;;;;;;2.65;0.98;;;;;;;10.29;86.22;97345.81;5026562;28;20308;-64
2021/05/16 03:21:16;;;;;;;4.97;1.23;;;;;;;10.34;85.34;97339.44;5044813;28;20300;-64
2021/05/16 03:23:42;;;;;;;4.13;1.25;;;;;;;10.31;85.85;97338.69;5046025;28;20021;-64
2021/05/16 03:26:07;;;;;;;5.95;1.50;;;;;;;10.27;86.16;97337.09;5045980;28;20025;-64
2021/05/16 03:28:33;;;;;;;5.60;1.55;;;;;;;10.30;86.20;97331.72;5038014;28;20026;-64
2021/05/16 03:30:59;;;;;;;6.50;1.80;;;;;;;10.37;85.93;97335.81;5025625;28;20101;-64
2021/05/16 03:33:24;;;;;;;3.90;1.55;;;;;;;10.36;85.34;97336.75;5022806;28;20021;-64
2021/05/16 03:35:50;;;;;;;4.80;1.98;;;;;;;10.38;85.81;97340.19;5021503;28;20094;-64
2021/05/16 03:38:16;;;;;;;4.82;1.45;;;;;;;10.44;85.46;97339.94;5025643;28;20029;-64
2021/05/16 03:40:41;;;;;;;4.78;1.70;;;;;;;10.33;85.40;97344.75;5039069;28;20216;-64
2021/05/16 03:43:07;;;;;;;5.90;1.63;;;;;;;10.36;85.60;97342.00;5045645;28;20021;-64
2021/05/16 03:45:33;;;;;;;4.90;1.33;;;;;;;10.42;85.59;97344.41;5045628;28;20025;-64
2021/05/16 03:47:59;;;;;;;3.92;1.38;;;;;;;10.41;85.31;97345.34;5010545;28;20026;-64
2021/05/16 03:50:24;;;;;;;2.63;1.50;;;;;;;10.43;85.82;97348.75;5020415;28;20018;-64
2021/05/16 03:52:50;;;;;;;3.63;1.45;;;;;;;10.46;85.90;97356.50;5021362;28;20269;-64
2021/05/16 03:55:17;;;;;;;4.07;1.55;;;;;;;10.44;85.23;97350.47;5024012;28;20022;-64
2021/05/16 03:57:43;;;;;;;5.93;1.77;;;;;;;10.43;85.30;97348.75;5025640;28;20033;-64
2021/05/16 04:00:09;;;;;;;5.15;1.58;;;;;;;10.38;86.12;97345.44;5024928;28;20042;-64
2021/05/16 04:02:34;;;;;;;9.15;1.58;;;;;;;10.42;85.29;97354.94;5010270;28;20017;-64
2021/05/16 04:05:00;;;;;;;6.18;1.75;;;;;;;10.42;85.53;97352.28;5009115;28;20212;-64
2021/05/16 04:07:25;;;;;;;5.65;1.60;;;;;;;10.50;84.75;97351.06;5007974;28;20313;-64
2021/05/16 04:09:51;;;;;;;12.60;2.30;;;;;;;10.43;85.54;97356.63;5014040;28;20193;-64
2021/05/16 04:12:17;;;;;;;7.55;1.63;;;;;;;10.41;85.65;97355.84;5022037;28;20321;-64
2021/05/16 04:14:44;;;;;;;6.72;1.67;;;;;;;10.37;85.65;97354.22;5020524;28;20025;-64
2021/05/16 04:17:10;;;;;;;7.80;1.90;;;;;;;10.38;85.71;97354.19;5022256;28;20025;-64
2021/05/16 04:19:36;;;;;;;5.63;1.67;;;;;;;10.36;86.13;97353.41;5025435;28;20037;-64
2021/05/16 04:22:02;;;;;;;4.28;1.42;;;;;;;10.40;86.05;97354.13;5011745;28;20034;-64
2021/05/16 04:24:27;;;;;;;7.43;1.38;;;;;;;10.41;85.67;97359.31;5008808;28;20034;-64
2021/05/16 04:26:52;;;;;;;4.97;1.35;;;;;;;10.47;85.25;97350.31;5007414;28;20040;-64
2021/05/16 04:29:18;;;;;;;10.57;1.75;;;;;;;10.49;85.23;97353.75;5011928;28;20028;-64
2021/05/16 04:31:43;;;;;;;13.55;2.00;;;;;;;10.42;85.36;97362.81;5011346;28;20029;-64
2021/05/16 04:34:08;;;;;;;8.18;1.60;;;;;;;10.45;85.45;97358.28;5009926;28;20064;-64
2021/05/16 04:36:34;;;;;;;4.25;1.35;;;;;;;10.52;85.02;97358.91;5010731;28;20024;-64
2021/05/16 04:38:59;;;;;;;3.33;1.02;;;;;;;10.49;85.38;97369.53;5011368;28;20022;-64
2021/05/16 04:41:25;;;;;;;6.65;1.30;;;;;;;10.45;85.12;97365.34;5017147;28;20024;-64
2021/05/16 04:43:50;;;;;;;5.55;1.35;;;;;;;10.45;85.97;97368.78;5014388;28;20011;-64
2021/05/16 04:46:15;;;;;;;7.10;1.50;;;;;;;10.52;85.32;97369.44;5007272;28;20025;-64
2021/05/16 04:48:41;;;;;;;3.03;1.20;;;;;;;10.46;85.32;97367.91;5007331;28;20025;-64
2021/05/16 04:51:07;;;;;;;1.95;0.93;;;;;;;10.39;85.46;97368.19;5022878;28;20028;-64
2021/05/16 04:53:34;;;;;;;8.80;1.58;;;;;;;10.45;85.18;97373.22;5020170;28;20014;-64
2021/05/16 04:56:00;;;;;;;4.57;1.13;;;;;;;10.46;85.46;97378.41;5020923;28;20021;-64
2021/05/16 04:58:27;;;;;;;6.28;1.33;;;;;;;10.40;85.65;97375.16;5014210;28;20093;-64
2021/05/16 05:00:52;;;;;;;5.97;1.30;;;;;;;10.41;85.75;97371.63;5017085;28;20038;-64
2021/05/16 05:03:21;;;;;;;4.45;1.60;;;;;;;10.38;85.86;97377.00;5019577;28;20178;-64
2021/05/16 05:05:47;;;;;;;4.82;1.08;;;;;;;10.39;85.96;97383.97;5019580;28;20064;-64
2021/05/16 05:08:12;;;;;;;4.82;0.93;;;;;;;10.35;86.11;97382.38;5019609;28;20018;-64
2021/05/16 05:10:38;;;;;;;2.38;0.80;;;;;;;10.30;85.75;97373.81;5021528;28;20089;-64
2021/05/16 05:13:04;;;;;;;2.60;1.33;;;;;;;10.28;85.76;97375.63;5013927;28;20026;-64
2021/05/16 05:15:30;;;;;;;6.70;1.48;;;;;;;10.34;85.99;97380.66;5009123;28;20025;-64
2021/05/16 05:17:55;;;;;;;6.13;1.50;;;;;;;10.36;85.27;97376.19;5010260;28;21445;-64
2021/05/16 05:20:22;;;;;;;6.35;1.10;;;;;;;10.41;85.33;97388.25;5012867;28;20021;-64
2021/05/16 05:22:48;;;;;;;5.03;1.30;;;;;;;10.36;85.36;97369.19;5010472;28;20196;-64
2021/05/16 05:25:13;;;;;;;5.00;1.10;;;;;;;10.39;85.99;97376.09;5009296;28;20022;-64
2021/05/16 05:27:39;;;;;;;2.53;1.50;;;;;;;10.54;85.58;97386.03;5017770;28;20031;-64
2021/05/16 05:30:05;;;;;;;6.68;1.17;;;;;;;10.57;85.49;97386.75;5017078;28;20037;-64
2021/05/16 05:32:31;;;;;;;6.40;1.10;;;;;;;10.59;85.68;97377.03;5024047;28;20216;-64
2021/05/16 05:34:56;;;;;;;4.47;1.10;;;;;;;10.69;85.37;97381.00;5024090;28;20042;-64
2021/05/16 05:37:22;;;;;;;5.50;1.25;;;;;;;10.64;85.27;97376.84;5024115;28;20029;-64
2021/05/16 05:39:47;;;;;;;4.60;1.52;;;;;;;10.62;85.62;97387.44;5029928;28;20028;-64
2021/05/16 05:42:13;;;;;;;3.22;0.80;;;;;;;10.71;85.45;97383.56;5047897;28;20093;-64
2021/05/16 05:44:40;;;;;;;4.97;1.00;;;;;;;10.75;85.82;97385.16;5047849;28;20021;-64
2021/05/16 05:47:05;;;;;;;6.65;1.50;;;;;;;10.82;85.08;97389.25;5047752;28;20067;-64
2021/05/16 05:49:31;;;;;;;6.65;1.13;;;;;;;10.90;84.51;97376.66;5046567;28;20021;-64
2021/05/16 05:51:59;;;;;;;6.65;1.40;;;;;;;10.99;84.53;97381.56;5027947;28;20025;-64
2021/05/16 05:54:25;;;;;;;5.35;1.33;;;;;;;11.08;84.67;97381.19;5028072;28;20049;-64
2021/05/16 05:56:50;;;;;;;6.93;1.25;;;;;;;11.04;84.53;97379.56;5027817;28;20308;-64
2021/05/16 05:59:16;;;;;;;5.70;1.63;;;;;;;11.07;83.95;97389.13;5027672;28;20037;-64
2021/05/16 06:01:42;;;;;;;6.43;1.02;;;;;;;11.14;84.44;97386.19;5046312;28;20031;-64
2021/05/16 06:04:07;;;;;;;4.93;1.55;;;;;;;11.17;84.36;97375.50;5047439;28;20041;-64
2021/05/16 06:06:32;;;;;;;5.00;1.33;;;;;;;11.31;83.26;97378.44;5047427;28;20017;-64
2021/05/16 06:08:58;;;;;;;5.32;1.38;;;;;;;11.30;83.49;97376.75;5047435;28;20031;-64
2021/05/16 06:11:23;;;;;;;4.88;1.50;;;;;;;11.32;83.48;97385.41;5031239;28;20044;-64
2021/05/16 06:13:49;;;;;;;5.80;1.20;;;;;;;11.26;83.78;97390.94;5027546;28;20028;-64
2021/05/16 06:16:15;;;;;;;9.20;1.67;;;;;;;11.28;83.27;97399.63;5026763;28;20022;-64
2021/05/16 06:18:40;;;;;;;7.07;1.20;;;;;;;11.25;83.29;97399.75;5026546;28;20033;-64
2021/05/16 06:21:05;;;;;;;8.07;1.48;;;;;;;11.15;84.55;97403.69;5039515;28;20025;-64
2021/05/16 06:23:43;;;;;;;5.43;1.70;;;;;;;11.25;83.83;97394.50;5046218;28;20017;-64
2021/05/16 06:26:08;;;;;;;10.65;1.88;;;;;;;12.19;81.22;97392.13;5046200;28;20025;-64
2021/05/16 06:28:34;;;;;;;4.97;1.40;;;;;;;12.32;79.16;97392.41;5046129;28;20028;-64
2021/05/16 06:30:59;;;;;;;7.38;1.42;;;;;;;12.41;80.33;97389.34;5033306;28;20029;-64
2021/05/16 06:33:25;;;;;;;8.38;2.10;;;;;;;12.75;80.29;97387.69;5026209;28;20330;-64
2021/05/16 06:35:50;;;;;;;10.73;1.85;;;;;;;12.88;78.17;97388.81;5026189;28;20025;-64
2021/05/16 06:38:16;;;;;;;10.02;1.95;;;;;;;12.91;78.25;97385.19;5026171;28;20324;-64
2021/05/16 06:40:41;;;;;;;7.47;1.83;;;;;;;12.62;79.36;97390.97;5035657;28;20021;-64
2021/05/16 06:43:06;;;;;;;10.20;2.17;;;;;;;12.38;79.17;97393.00;5045492;28;20017;-64
2021/05/16 06:45:33;;;;;;;10.07;1.65;;;;;;;12.29;80.30;97393.41;5045840;28;20022;-64
2021/05/16 06:47:58;;;;;;;10.05;1.88;;;;;;;12.17;81.47;97393.09;5036582;28;20088;-64
2021/05/16 06:50:23;;;;;;;7.75;1.98;;;;;;;12.17;80.62;97391.34;5025743;28;20028;-64
2021/05/16 06:52:49;;;;;;;9.20;2.00;;;;;;;12.21;81.47;97394.69;5022851;28;20379;-64
2021/05/16 06:55:14;;;;;;;9.73;2.30;;;;;;;12.22;81.31;97391.97;5016175;28;20021;-64
2021/05/16 06:57:42;;;;;;;8.25;2.10;;;;;;;12.29;80.35;97396.06;5020061;28;20049;-64
2021/05/16 07:00:08;;;;;;;8.70;1.92;;;;;;;12.36;80.54;97400.13;5025578;28;20069;-64
2021/05/16 07:02:34;;;;;;;7.65;1.83;;;;;;;12.52;80.62;97401.13;5023857;28;20116;-64
2021/05/16 07:04:59;;;;;;;8.52;1.65;;;;;;;12.71;78.41;97396.69;5005965;28;20075;-64
2021/05/16 07:07:25;;;;;;;9.13;2.00;;;;;;;12.98;77.58;97395.34;5013986;28;20312;-64
2021/05/16 07:09:50;;;;;;;5.88;1.75;;;;;;;12.87;76.52;97402.97;5044990;28;20120;-64
2021/05/16 07:12:16;;;;;;;4.90;1.63;;;;;;;12.85;77.60;97402.16;5045555;28;20091;-64
2021/05/16 07:14:41;;;;;;;9.98;2.03;;;;;;;12.67;78.45;97400.41;5045566;28;20025;-64
2021/05/16 07:17:06;;;;;;;7.03;2.08;;;;;;;12.69;77.88;97402.97;5043814;28;20114;-64
2021/05/16 07:19:32;;;;;;;8.15;1.65;;;;;;;12.61;78.26;97395.41;5026276;28;20044;-64
2021/05/16 07:21:57;;;;;;;6.93;2.10;;;;;;;13.28;77.13;97393.03;5026226;28;20022;-64
2021/05/16 07:24:23;;;;;;;7.10;2.05;;;;;;;15.18;72.12;97404.81;5026179;28;20037;-63
2021/05/16 07:26:48;;;;;;;8.43;2.08;;;;;;;16.21;69.01;97395.13;5023177;28;20263;-64
2021/05/16 07:29:14;;;;;;;13.38;2.50;;;;;;;16.02;69.02;97399.81;5044281;28;20017;-65
2021/05/16 07:31:39;;;;;;;8.02;2.17;;;;;;;15.95;67.19;97393.16;5022866;28;20025;-64
2021/05/16 07:34:04;;;;;;;6.00;1.92;;;;;;;15.67;67.24;97398.44;5006249;28;20026;-64
2021/05/16 07:36:30;;;;;;;8.52;1.92;;;;;;;16.14;67.64;97401.72;5006343;28;20022;-64
2021/05/16 07:38:55;;;;;;;6.60;1.73;;;;;;;16.26;65.58;97394.84;5036824;28;20022;-64
2021/05/16 07:41:21;;;;;;;6.70;1.63;;;;;;;15.93;65.94;97399.50;5045724;28;20027;-64
2021/05/16 07:43:46;;;;;;;12.18;1.90;;;;;;;16.27;63.80;97392.09;5045709;28;20017;-64
2021/05/16 07:46:11;;;;;;;9.85;2.28;;;;;;;16.79;63.10;97389.69;5045587;28;20021;-64
2021/05/16 07:48:37;;;;;;;7.20;1.90;;;;;;;18.24;58.83;97383.44;5032747;28;20032;-64
2021/05/16 07:51:03;;;;;;;7.35;1.90;;;;;;;18.95;58.60;97387.22;5025694;28;20053;-64
2021/05/16 07:53:29;;;;;;;5.85;1.73;;;;;;;19.12;56.91;97390.34;5025549;28;20028;-64
2021/05/16 07:55:54;;;;;;;5.75;1.60;;;;;;;18.33;59.17;97390.81;5025672;28;20061;-64
2021/05/16 07:58:20;;;;;;;10.25;2.00;;;;;;;19.26;53.51;97381.38;5035436;28;20040;-64
2021/05/16 08:00:45;;;;;;;8.57;1.90;;;;;;;19.28;57.19;97379.47;5045248;28;20069;-64
2021/05/16 08:03:11;;;;;;;5.22;1.60;;;;;;;18.53;56.74;97383.16;5044226;28;20033;-64
2021/05/16 08:05:36;;;;;;;11.75;1.90;;;;;;;18.16;55.50;97380.47;5045188;28;20390;-64
2021/05/16 08:08:02;;;;;;;6.28;1.88;;;;;;;17.37;57.81;97389.44;5045173;28;20033;-64
2021/05/16 08:10:28;;;;;;;9.05;1.88;;;;;;;16.74;62.50;97379.34;5031949;28;20029;-64
2021/05/16 08:12:53;;;;;;;8.95;1.70;;;;;;;16.47;60.75;97386.41;5025596;28;20072;-64
2021/05/16 08:15:19;;;;;;;9.57;2.00;;;;;;;15.97;61.57;97390.41;5025353;28;20028;-64
2021/05/16 08:17:45;;;;;;;8.73;2.00;;;;;;;15.43;66.05;97388.38;5024124;28;20084;-64
2021/05/16 08:20:11;;;;;;;6.80;1.70;;;;;;;15.57;64.42;97385.78;5024735;28;20374;-64
2021/05/16 08:22:37;;;;;;;6.22;1.88;;;;;;;15.78;66.60;97372.09;5025112;28;20091;-64
2021/05/16 08:25:08;;;;;;;11.05;2.22;;;;;;;15.86;64.50;97387.56;5044154;28;20025;-64
2021/05/16 08:27:34;;;;;;;9.20;1.65;;;;;;;15.93;63.34;97376.50;5045107;28;20256;-64
2021/05/16 08:29:59;;;;;;;10.73;2.10;;;;;;;15.47;64.78;97379.31;5044782;28;20045;-64
2021/05/16 08:32:25;;;;;;;8.85;2.17;;;;;;;15.42;63.68;97384.03;5044730;28;20088;-64
2021/05/16 08:34:51;;;;;;;8.02;1.40;;;;;;;15.53;65.82;97374.50;5044948;28;20029;-64
2021/05/16 08:37:17;;;;;;;9.68;2.20;;;;;;;15.47;64.37;97381.97;5044615;28;20027;-64
2021/05/16 08:39:42;;;;;;;10.20;1.98;;;;;;;15.52;64.55;97375.44;5036301;28;20231;-64
2021/05/16 08:42:09;;;;;;;6.93;1.75;;;;;;;15.45;64.23;97387.38;5024853;28;20030;-64
2021/05/16 08:44:35;;;;;;;7.43;1.67;;;;;;;15.63;65.16;97377.47;5024784;28;20025;-64
2021/05/16 08:47:02;;;;;;;11.90;2.13;;;;;;;16.26;63.44;97377.06;5024739;28;20221;-64
2021/05/16 08:49:28;;;;;;;10.35;1.70;;;;;;;16.66;61.02;97381.66;5024680;28;20025;-64
2021/05/16 08:51:53;;;;;;;11.30;1.77;;;;;;;16.98;61.80;97372.47;5024617;28;20028;-64
2021/05/16 08:54:24;;;;;;;9.18;1.63;;;;;;;16.59;61.66;97376.81;5024601;28;20030;-64
2021/05/16 08:56:54;;;;;;;15.48;2.38;;;;;;;16.00;62.26;97372.50;5024643;28;20116;-64
2021/05/16 08:59:23;;;;;;;7.60;1.48;;;;;;;15.75;64.12;97385.53;5043927;28;20080;-64
2021/05/16 09:01:54;;;;;;;9.93;1.70;;;;;;;15.88;63.61;97375.06;5044375;28;20021;-64
2021/05/16 09:04:34;;;;;;;6.38;1.65;;;;;;;16.62;62.60;97369.53;5044159;28;20021;-64
2021/05/16 09:07:00;;;;;;;9.93;2.30;;;;;;;16.50;60.54;97380.91;5044436;28;20028;-64
2021/05/16 09:09:27;;;;;;;14.80;2.10;;;;;;;16.25;61.66;97391.31;5044096;28;20030;-64
2021/05/16 09:11:59;;;;;;;12.10;2.47;;;;;;;16.38;64.19;97383.44;5044049;28;20086;-64
2021/05/16 09:14:50;;;;;;;5.55;1.50;;;;;;;17.19;58.74;97372.88;5043688;28;20067;-64
2021/05/16 09:17:28;;;;;;;10.45;1.95;;;;;;;17.37;58.43;97378.81;5042489;28;20201;-64
2021/05/16 09:19:56;;;;;;;6.57;2.03;;;;;;;19.16;54.03;97391.00;5024250;28;20045;-64
2021/05/16 09:22:40;;;;;;;6.93;1.77;;;;;;;20.37;54.88;97371.94;5024188;28;20040;-64
2021/05/16 09:25:16;;;;;;;7.95;1.50;;;;;;;21.50;48.33;97368.06;5024190;28;20057;-64
2021/05/16 09:27:45;;;;;;;8.68;2.00;;;;;;;21.33;48.78;97368.63;5024392;28;20032;-64
2021/05/16 09:30:19;;;;;;;8.68;2.08;;;;;;;22.12;46.63;97363.69;5024391;28;20034;-64
2021/05/16 09:32:59;;;;;;;4.95;1.60;;;;;;;22.34;44.89;97379.63;5024108;28;20316;-64
2021/05/16 09:35:28;;;;;;;8.35;1.65;;;;;;;21.75;46.21;97365.06;5024131;28;20026;-64
2021/05/16 09:38:07;;;;;;;6.65;1.75;;;;;;;21.21;45.76;97362.44;5024103;28;20052;-64
2021/05/16 09:40:42;;;;;;;7.40;1.90;;;;;;;21.00;47.67;97365.03;5034784;28;20021;-64
2021/05/16 09:43:26;;;;;;;7.63;2.00;;;;;;;20.35;50.33;97368.56;5044088;28;20092;-64
2021/05/16 09:45:54;;;;;;;9.13;1.70;;;;;;;18.76;51.62;97370.81;5043827;28;20049;-64
2021/05/16 09:48:28;;;;;;;6.35;1.55;;;;;;;18.42;51.22;97376.88;5043703;28;20092;-64
2021/05/16 09:51:07;;;;;;;3.80;0.98;;;;;;;18.01;50.95;97365.53;5043725;28;20320;-64
2021/05/16 09:53:32;;;;;;;6.47;1.30;;;;;;;18.08;50.83;97367.69;5043593;28;20029;-64
2021/05/16 09:56:13;;;;;;;6.85;1.67;;;;;;;18.40;51.57;97369.00;5043704;28;20049;-64
2021/05/16 09:58:39;;;;;;;8.65;1.52;;;;;;;18.01;50.30;97369.06;5043402;28;20026;-64
2021/05/16 10:01:04;;;;;;;6.03;1.25;;;;;;;17.57;52.20;97371.25;5043643;28;20033;-64
2021/05/16 10:03:31;;;;;;;4.85;1.30;;;;;;;17.73;52.74;97360.41;5041602;28;20209;-64
2021/05/16 10:05:58;;;;;;;5.95;1.00;;;;;;;18.23;51.20;97365.78;5023869;28;20021;-64
2021/05/16 10:08:24;;;;;;;7.57;1.80;;;;;;;18.05;50.46;97367.03;5023780;28;20022;-64
2021/05/16 10:10:49;;;;;;;6.72;1.27;;;;;;;18.18;52.76;97368.75;5023803;28;20022;-64
2021/05/16 10:13:15;;;;;;;6.88;1.30;;;;;;;18.67;50.75;97366.19;5023740;28;20371;-64
2021/05/16 10:15:41;;;;;;;9.73;1.58;;;;;;;19.62;49.02;97351.13;5023729;28;20037;-64
2021/05/16 10:18:09;;;;;;;4.88;1.30;;;;;;;19.38;46.55;97343.13;5023720;28;20087;-64
2021/05/16 10:20:37;;;;;;;5.97;1.20;;;;;;;18.72;49.04;97348.91;5023611;28;20045;-64
2021/05/16 10:23:04;;;;;;;4.25;1.25;;;;;;;18.08;49.71;97335.72;5023846;28;20052;-65
2021/05/16 10:25:44;;;;;;;7.00;1.25;;;;;;;18.66;51.42;97337.81;5023843;28;20025;-65
2021/05/16 10:28:12;;;;;;;8.75;1.85;;;;;;;18.44;48.65;97333.16;5025629;28;20354;-65
2021/05/16 10:30:40;;;;;;;8.38;1.58;;;;;;;18.17;52.73;97334.22;5036369;28;20323;-65
2021/05/16 10:33:06;;;;;;;4.43;1.08;;;;;;;18.50;52.20;97331.88;5046311;28;20025;-65
2021/05/16 10:35:48;;;;;;;7.93;1.45;;;;;;;19.21;48.96;97320.31;5046021;28;20029;-66
2021/05/16 10:38:33;;;;;;;;;;;;;;;18.79;49.58;97327.97;5046824;28;20021;-65
2021/05/16 10:41:25;;;;;;;6.47;1.20;;;;;;;18.02;50.35;97319.31;5035366;28;19936;-65
2021/05/16 10:43:51;;;;;;;4.22;1.10;;;;;;;17.88;52.22;97314.13;5026213;28;20081;-65
2021/05/16 10:46:38;;;;;;;8.35;1.70;;;;;;;18.88;50.67;97311.31;5026656;28;20304;-65
2021/05/16 10:49:27;;;;;;;3.55;1.08;;;;;;;18.95;50.41;97307.22;5026345;28;20030;-65
2021/05/16 10:51:53;;;;;;;7.90;1.50;;;;;;;18.50;49.45;97310.56;5026336;28;20029;-65
2021/05/16 10:54:33;;;;;;;6.22;1.30;;;;;;;18.69;49.90;97301.13;5025729;28;20076;-65
2021/05/16 10:57:16;;;;;;;5.88;1.40;;;;;;;18.77;46.71;97304.06;5025855;28;20044;-65
2021/05/16 10:59:43;;;;;;;5.40;1.20;;;;;;;18.31;50.58;97299.47;5026057;28;20221;-65
2021/05/16 11:02:08;;;;;;;6.05;1.38;;;;;;;18.80;50.70;97295.03;5025799;28;20041;-65
2021/05/16 11:04:47;;;;;;;4.72;0.93;;;;;;;18.39;50.45;97284.72;5025638;28;20029;-65
2021/05/16 11:07:31;;;;;;;5.93;1.40;;;;;;;18.70;52.59;97286.00;5025471;28;20194;-65
2021/05/16 11:10:26;;;;;;;6.53;1.75;;;;;;;19.60;49.72;97275.63;5024529;28;20033;-65
2021/05/16 11:12:51;;;;;;;8.27;1.48;;;;;;;19.37;48.24;97266.72;5025438;28;20100;-65
2021/05/16 11:15:23;;;;;;;6.72;1.30;;;;;;;19.50;47.94;97270.16;5025467;28;20044;-65
2021/05/16 11:17:50;;;;;;;6.15;1.20;;;;;;;18.37;49.60;97278.63;5025477;28;20053;-65
2021/05/16 11:20:18;;;;;;;6.78;1.63;;;;;;;18.43;50.72;97283.53;5024988;28;20072;-65
2021/05/16 11:22:44;;;;;;;5.15;1.23;;;;;;;18.58;51.96;97282.38;5025369;28;20049;-65
2021/05/16 11:25:09;;;;;;;4.90;1.30;;;;;;;18.41;49.96;97279.25;5025410;28;20021;-65
2021/05/16 11:27:35;;;;;;;5.90;0.95;;;;;;;17.99;50.52;97277.78;5026303;28;20033;-65
2021/05/16 11:30:07;;;;;;;7.95;1.67;;;;;;;18.36;51.99;97286.69;5045024;28;20025;-65
2021/05/16 11:32:33;;;;;;;2.97;0.80;;;;;;;18.39;51.66;97275.84;5044513;28;20025;-65
2021/05/16 11:35:15;;;;;;;8.32;1.20;;;;;;;18.28;49.25;97286.38;5039791;28;20030;-65
2021/05/16 11:37:41;;;;;;;8.70;1.30;;;;;;;18.39;51.83;97276.72;5044472;28;20378;-64
2021/05/16 11:40:25;;;;;;;7.18;1.50;;;;;;;18.21;52.57;97271.81;5044862;28;20202;-64